Terminal Aerodrome Forecast
Issued by NWS

Home | Current Version | Previous Version | Text Only | Print | Product List | Glossary On
Versions: 1 2 3 4 5 6 7 8 9 10 11 12 13 14 15 16 17 18 19 20 21 22 23 24 25 26 27
000
FTUS43 KPAH 251627 AAB
TAFCGI
TAF AMD
KCGI 251627Z 2516/2612 18007KT P6SM SCT040 BKN150
     FM251700 19010KT P6SM BKN040
      TEMPO 2517/2520 4SM SHRA OVC035
     FM260000 19009KT P6SM FEW050 SCT250=

USA.gov is the U.S. government's official web portal to all federal, state and local government web resources and services.